Архив погоды в Троицком

Метеограмма Троицкое
Четверг, 27 Июня
Время местн. Темп Ветер Видим Явления Облачность нижн/средн/верх Атм. давл. Влжн Точка росы ВНГО R Сост. почвы Tg s
Напр Скр Прв ур.ст ур.м изм
10:00 +14.9° - 6 - 50 км - облачно с прояснениями 754 757 +0.5 69% +9.2° - - - - -
07:00 - +12.2° С-В 5 10 - - - 754 757 +0.7 78% +8.4° - - - - -
04:00 +11.7° С-В 4 - более 50 км - переменная облачность 753 757 +0.2 85% +9.3° более 2.5 км - - - -
01:00 +12.8° С,С-В 2 - 50 км - ясно 753 756 0 78% +9.1° более 2.5 км - - - -
Среда, 26 Июня
Время местн. Темп Ветер Видим Явления Облачность нижн/средн/верх Атм. давл. Влжн Точка росы ВНГО R Сост. почвы Tg s
Напр Скр Прв ур.ст ур.м изм
22:00 +13.6° С,С-В 1 - 50 км - переменная облачность 753 756 +1.1 77% +9.6° 1 км - - - -
19:00 +16.5° С,С-В 2 - 50 км - преимущественно облачно 752 755 -0.5 64% +9.7° 1 км 0 - - -
16:00 +16.4° С,С-В 1 - 50 км - облачно 752 755 -1.4 65% +9.8° 1 км - - - -
13:00 +14° В,С-В 5 - 50 км - облачно 754 757 -1.3 67% +7.9° 1 км - - - -
10:00 +11.9° С,С-В 2 - 50 км - облачно 755 758 -0.2 72% +7.1° 1 км - - - -
07:00 +10° С-В 3 - 50 км - облачно 755 758 +0.2 75% +5.7° 1 км 0 Влажная (без луж) - -
04:00 +11.1° В,С-В 8 13 50 км - облачно 755 758 +1.2 72% +6.2° 1 км - - - -
01:00 +13.4° В,С-В 8 15 50 км - облачно 754 757 +1.3 67% +7.4° 1 км - - - -
Вторник, 25 Июня
Время местн. Темп Ветер Видим Явления Облачность нижн/средн/верх Атм. давл. Влжн Точка росы ВНГО R Сост. почвы Tg s
Напр Скр Прв ур.ст ур.м изм
22:00 +15.3° В 6 11 50 км - облачно 753 755 +3.2 76% +11° 1 км - - - -
19:00 +24.8° Ю-З 5 - 50 км - переменная облачность 749 752 0 69% +18.7° 1 км 5 - - -
16:00 +23.9° Ю,Ю-З 6 11 20 км - облачно 749 752 -0.8 70% +18.2° 1 км - - - -
13:00 +24.3° Ю,Ю-З 6 12 10 км небо без изменений {ливневые осадки} облачно 750 753 -0.8 68% +18.1° 1 км - - - -
10:00 +19.5° Ю,Ю-З 5 - 2 км слабый ливневый дождь облачно 751 754 -0.7 85% +16.9° 1 км - - - -
07:00 +19.3° Ю,Ю-З 6 12 10 км слабый ливневый дождь облачно 752 754 +0.2 81% +16° 1 км 0.5 Влажная (без луж) +18° -
04:00 +21.2° Ю,Ю-З 5 - 50 км - облачно 751 754 -0.9 72% +15.9° 1 км - - - -
01:00 +20.7° Ю,Ю-З 4 - 50 км - облачно 752 755 -0.5 77% +16.6° 1 км - - - -
Понедельник, 24 Июня
Время местн. Темп Ветер Видим Явления Облачность нижн/средн/верх Атм. давл. Влжн Точка росы ВНГО R Сост. почвы Tg s
Напр Скр Прв ур.ст ур.м изм
22:00 +21.3° Ю,Ю-З 2 - 50 км - облачно с прояснениями 753 756 +0.2 76% +16.8° 1 км - - - -
19:00 +26.9° Ю,Ю-З 3 - 50 км - облачно с прояснениями 753 756 -0.5 53% +16.5° 1 км 0 - - -
16:00 +27° Ю,Ю-З 3 - более 50 км - облачно с прояснениями 753 756 -1.3 54% +16.8° 1 км - - - -
13:00 +23.7° С,С-В 1 - 50 км - облачно с прояснениями 754 757 -0.6 65% +16.7° 1 км - - - -
10:00 +20.9° С 1 - 50 км - преимущественно облачно 755 758 +0.1 74% +16.1° 1 км - - - -
07:00 +16.6° штиль 0 - 20 км - облачно 755 758 +0.5 88% +14.6° 1 км 0 Влажная (без луж) - -